createdAt,value
2022-10-17T00:05:42.931Z,6.50
2022-10-17T00:08:11.804Z,6.40
2022-10-17T00:10:40.317Z,6.40
2022-10-17T00:20:35.622Z,6.50
2022-10-17T00:32:53.684Z,6.40
2022-10-17T00:45:27.206Z,6.30
2022-10-17T00:48:02.174Z,6.30
2022-10-17T00:53:00.969Z,6.30
2022-10-17T00:55:32.382Z,6.10
2022-10-17T00:58:02.587Z,6.20
2022-10-17T01:07:54.342Z,6.20
2022-10-17T01:10:27.101Z,6.20
2022-10-17T01:13:13.749Z,5.90
2022-10-17T01:16:05.009Z,6.00
2022-10-17T01:19:03.042Z,6.20
2022-10-17T01:21:43.670Z,6.10
2022-10-17T01:24:42.704Z,6.20
2022-10-17T01:27:29.444Z,6.10
2022-10-17T01:30:27.604Z,6.00
2022-10-17T01:32:58.675Z,6.00
2022-10-17T01:35:36.178Z,5.60
2022-10-17T01:38:11.308Z,6.00
2022-10-17T01:40:48.506Z,6.00
2022-10-17T01:43:24.812Z,6.00
2022-10-17T01:45:57.390Z,6.00
2022-10-17T01:48:30.126Z,6.10
2022-10-17T01:51:08.022Z,6.00
2022-10-17T01:53:43.192Z,6.10
2022-10-17T01:56:13.512Z,6.00
2022-10-17T01:58:47.565Z,6.10
2022-10-17T02:03:45.398Z,6.10
2022-10-17T02:08:44.099Z,6.10
2022-10-17T02:11:19.865Z,6.20
2022-10-17T02:14:06.415Z,6.20
2022-10-17T02:16:42.564Z,6.10
2022-10-17T02:19:34.606Z,6.00
2022-10-17T02:22:25.239Z,6.20
2022-10-17T02:25:14.469Z,6.10
2022-10-17T02:27:51.676Z,6.10
2022-10-17T02:30:37.374Z,6.00
2022-10-17T02:33:19.223Z,6.20
2022-10-17T02:35:54.925Z,6.00
2022-10-17T02:38:25.235Z,6.10
2022-10-17T02:40:54.046Z,6.10
2022-10-17T02:43:23.054Z,6.50
2022-10-17T02:45:53.964Z,6.00
2022-10-17T02:48:42.813Z,6.20
2022-10-17T02:51:29.966Z,6.10
2022-10-17T02:54:17.584Z,5.90
2022-10-17T02:56:53.773Z,6.30
2022-10-17T02:59:23.597Z,6.10
2022-10-17T03:04:20.070Z,5.90
2022-10-17T03:06:49.152Z,5.90
2022-10-17T03:24:06.385Z,6.00
2022-10-17T03:38:55.104Z,5.80
2022-10-17T03:43:54.643Z,5.80
2022-10-17T03:56:18.495Z,10.00
2022-10-17T04:01:15.539Z,5.70
2022-10-17T04:06:13.048Z,5.90
2022-10-17T04:16:07.580Z,5.80
2022-10-17T04:21:04.729Z,5.90
2022-10-17T04:26:01.548Z,6.10
2022-10-17T04:31:02.885Z,6.00
2022-10-17T04:33:31.177Z,6.00
2022-10-17T04:36:04.656Z,6.00
2022-10-17T04:41:03.458Z,6.00
2022-10-17T04:43:33.052Z,5.90
2022-10-17T04:46:02.224Z,5.90
2022-10-17T04:51:03.859Z,6.10
2022-10-17T04:53:33.672Z,6.00
2022-10-17T04:58:30.548Z,6.40
2022-10-17T05:20:43.220Z,6.40
2022-10-17T05:30:36.879Z,6.50
2022-10-17T05:52:53.966Z,6.60
2022-10-17T05:57:49.889Z,7.30
2022-10-17T06:00:17.786Z,6.90
2022-10-17T06:05:14.173Z,6.90
2022-10-17T06:10:16.618Z,7.40
2022-10-17T06:12:45.659Z,7.10
2022-10-17T06:15:13.899Z,7.40
2022-10-17T06:20:10.165Z,7.10
2022-10-17T06:25:06.030Z,7.00
2022-10-17T06:30:01.270Z,7.60
2022-10-17T06:34:57.276Z,7.60
2022-10-17T06:44:48.682Z,7.30
2022-10-17T06:49:47.631Z,7.60
2022-10-17T06:52:17.206Z,6.80
2022-10-17T06:54:45.070Z,7.50
2022-10-17T06:57:12.889Z,6.80
2022-10-17T06:59:40.338Z,7.30
2022-10-17T07:02:09.309Z,7.00
2022-10-17T07:04:37.327Z,7.90
2022-10-17T07:07:05.491Z,7.70
2022-10-17T07:09:33.646Z,7.30
2022-10-17T07:17:00.951Z,7.90
2022-10-17T07:19:28.708Z,8.60
2022-10-17T07:24:24.028Z,8.60
2022-10-17T07:26:51.608Z,8.20
2022-10-17T07:34:16.974Z,8.40
2022-10-17T07:36:44.576Z,7.60
2022-10-17T07:39:12.288Z,8.00
2022-10-17T07:44:07.663Z,7.80
2022-10-17T07:49:03.342Z,7.70
2022-10-17T07:51:31.003Z,7.80
2022-10-17T07:54:00.360Z,9.50
2022-10-17T07:56:31.597Z,9.30
2022-10-17T07:59:05.200Z,8.10
2022-10-17T08:01:39.383Z,8.20
2022-10-17T08:04:10.356Z,8.20
2022-10-17T08:06:39.426Z,8.50
2022-10-17T08:09:09.507Z,8.20
2022-10-17T08:11:39.527Z,8.10
2022-10-17T08:19:05.259Z,8.10
2022-10-17T08:26:31.161Z,7.80
2022-10-17T08:31:27.480Z,8.50
2022-10-17T08:33:55.473Z,8.20
2022-10-17T08:41:40.822Z,8.10
2022-10-17T08:44:23.468Z,8.70
2022-10-17T08:46:59.066Z,8.50
2022-10-17T08:49:42.085Z,8.30
2022-10-17T08:52:15.462Z,8.30
2022-10-17T08:54:47.237Z,8.40
2022-10-17T08:57:16.884Z,8.50
2022-10-17T08:59:50.536Z,8.30
2022-10-17T09:02:46.173Z,8.20
2022-10-17T09:05:28.526Z,8.10
2022-10-17T09:08:25.455Z,8.00
2022-10-17T09:11:23.670Z,8.00
2022-10-17T09:14:05.146Z,8.10
2022-10-17T09:16:58.366Z,7.90
2022-10-17T09:19:35.512Z,7.90
2022-10-17T09:22:11.250Z,7.70
2022-10-17T09:24:45.375Z,7.50
2022-10-17T09:27:39.275Z,7.60
2022-10-17T09:30:44.056Z,7.00
2022-10-17T09:33:34.689Z,7.00
2022-10-17T09:36:06.421Z,7.00
2022-10-17T09:38:41.273Z,6.90
2022-10-17T09:41:43.777Z,6.40
2022-10-17T09:44:30.143Z,6.90
2022-10-17T09:47:21.622Z,7.10
2022-10-17T09:49:50.148Z,6.60
2022-10-17T09:52:25.550Z,7.40
2022-10-17T09:54:59.126Z,7.20
2022-10-17T09:57:28.132Z,7.50
2022-10-17T10:00:00.485Z,7.10
2022-10-17T10:02:31.511Z,6.90
2022-10-17T10:05:06.726Z,7.10
2022-10-17T10:07:39.765Z,6.70
2022-10-17T10:10:28.211Z,7.30
2022-10-17T10:13:07.559Z,7.20
2022-10-17T10:15:44.009Z,7.20
2022-10-17T10:18:34.219Z,8.20
2022-10-17T10:21:11.190Z,6.90
2022-10-17T10:23:45.011Z,7.00
2022-10-17T10:26:26.130Z,7.00
2022-10-17T10:29:09.775Z,6.90
2022-10-17T10:31:50.025Z,7.10
2022-10-17T10:34:30.698Z,7.10
2022-10-17T10:37:07.436Z,6.70
2022-10-17T10:39:50.237Z,7.20
2022-10-17T10:42:29.171Z,7.20
2022-10-17T10:45:07.474Z,7.20
2022-10-17T10:48:07.979Z,7.20
2022-10-17T10:50:45.798Z,7.80
2022-10-17T10:53:40.179Z,6.90
2022-10-17T10:56:28.298Z,6.70
2022-10-17T10:59:13.081Z,7.20
2022-10-17T11:01:56.782Z,7.30
2022-10-17T11:04:39.003Z,7.40
2022-10-17T11:07:22.927Z,7.40
2022-10-17T11:10:09.195Z,7.30
2022-10-17T11:15:41.121Z,7.70
2022-10-17T11:18:29.478Z,7.10
2022-10-17T11:21:18.597Z,8.20
2022-10-17T11:23:57.884Z,11.40
2022-10-17T11:26:35.298Z,7.40
2022-10-17T11:31:50.144Z,7.20
2022-10-17T11:34:38.860Z,11.40
2022-10-17T11:37:28.650Z,6.90
2022-10-17T11:40:05.065Z,7.40
2022-10-17T11:42:54.148Z,7.40
2022-10-17T11:45:28.373Z,7.50
2022-10-17T11:48:07.980Z,7.90
2022-10-17T11:54:00.482Z,7.40
2022-10-17T11:57:03.828Z,7.40
2022-10-17T11:59:54.321Z,8.10
2022-10-17T12:02:46.566Z,7.50
2022-10-17T12:05:29.967Z,7.50
2022-10-17T12:08:17.985Z,7.20
2022-10-17T12:11:07.973Z,7.70
2022-10-17T12:13:51.137Z,8.10
2022-10-17T12:16:44.765Z,7.60
2022-10-17T12:19:26.920Z,7.50
2022-10-17T12:21:57.960Z,7.60
2022-10-17T12:24:45.180Z,7.40
2022-10-17T12:27:34.559Z,7.50
2022-10-17T12:30:19.567Z,7.50
2022-10-17T12:33:09.275Z,7.70
2022-10-17T12:35:40.257Z,8.60
2022-10-17T12:38:27.475Z,7.60
2022-10-17T12:40:59.705Z,7.60
2022-10-17T12:43:47.840Z,7.50
2022-10-17T12:46:47.976Z,7.30
2022-10-17T12:49:55.791Z,7.80
2022-10-17T12:52:48.062Z,7.60
2022-10-17T12:55:22.834Z,7.50
2022-10-17T12:58:08.865Z,7.40
2022-10-17T13:01:18.812Z,7.60
2022-10-17T13:03:50.433Z,7.90
2022-10-17T13:06:26.657Z,7.20
2022-10-17T13:09:04.262Z,7.70
2022-10-17T13:11:38.528Z,7.70
2022-10-17T13:14:15.689Z,7.80
2022-10-17T13:17:04.295Z,7.70
2022-10-17T13:19:45.964Z,7.90
2022-10-17T13:22:24.357Z,7.90
2022-10-17T13:25:08.211Z,7.70
2022-10-17T13:27:38.866Z,8.10
2022-10-17T13:30:30.912Z,7.70
2022-10-17T13:33:04.165Z,8.70
2022-10-17T13:38:28.789Z,7.90
2022-10-17T13:41:10.885Z,7.90
2022-10-17T13:43:50.253Z,7.60
2022-10-17T13:46:37.996Z,7.90
2022-10-17T13:49:28.100Z,7.90
2022-10-17T13:51:59.187Z,8.10
2022-10-17T13:54:45.829Z,8.00
2022-10-17T13:57:26.150Z,8.00
2022-10-17T13:59:59.199Z,8.00
2022-10-17T14:02:32.546Z,8.10
2022-10-17T14:05:20.329Z,8.10
2022-10-17T14:08:11.357Z,8.10
2022-10-17T14:10:47.052Z,8.10
2022-10-17T14:13:24.411Z,8.30
2022-10-17T14:16:04.319Z,8.30
2022-10-17T14:18:38.345Z,8.30
2022-10-17T14:24:18.065Z,8.30
2022-10-17T14:27:05.085Z,8.30
2022-10-17T14:29:53.917Z,8.20
2022-10-17T14:32:25.211Z,8.20
2022-10-17T14:35:17.892Z,7.80
2022-10-17T14:37:52.438Z,8.20
2022-10-17T14:40:27.171Z,8.10
2022-10-17T14:43:02.072Z,8.20
2022-10-17T14:45:35.725Z,8.10
2022-10-17T14:48:17.252Z,8.20
2022-10-17T14:51:18.243Z,8.50
2022-10-17T14:54:05.692Z,8.10
2022-10-17T14:56:39.785Z,8.20
2022-10-17T14:59:18.193Z,8.20
2022-10-17T15:01:52.568Z,8.20
2022-10-17T15:06:56.902Z,8.20
2022-10-17T15:09:30.243Z,8.20
2022-10-17T15:12:04.262Z,8.30
2022-10-17T15:14:36.367Z,8.20
2022-10-17T15:17:16.498Z,8.30
2022-10-17T15:19:48.822Z,8.30
2022-10-17T15:22:20.379Z,8.40
2022-10-17T15:24:51.109Z,8.40
2022-10-17T15:27:25.954Z,8.80
2022-10-17T15:29:57.282Z,8.60
2022-10-17T15:32:28.500Z,8.50
2022-10-17T15:34:59.278Z,8.30
2022-10-17T15:39:59.842Z,7.60
2022-10-17T15:42:34.078Z,8.40
2022-10-17T15:45:02.878Z,8.40
2022-10-17T15:47:44.095Z,8.80
2022-10-17T15:50:18.541Z,9.30
2022-10-17T15:52:53.311Z,8.50
2022-10-17T15:55:31.567Z,8.50
2022-10-17T15:58:02.339Z,8.70
2022-10-17T16:00:34.979Z,8.50
2022-10-17T16:03:08.709Z,8.50
2022-10-17T16:05:44.657Z,8.50
2022-10-17T16:11:05.789Z,8.90
2022-10-17T16:13:41.765Z,8.50
2022-10-17T16:16:17.190Z,6.40
2022-10-17T16:18:48.040Z,8.40
2022-10-17T16:21:19.360Z,9.20
2022-10-17T16:26:22.345Z,8.60
2022-10-17T16:28:54.525Z,9.80
2022-10-17T16:31:33.163Z,8.70
2022-10-17T16:34:06.513Z,8.80
2022-10-17T16:36:41.962Z,8.80
2022-10-17T16:39:16.890Z,8.90
2022-10-17T16:41:53.591Z,8.70
2022-10-17T16:44:27.589Z,8.50
2022-10-17T16:47:06.631Z,8.90
2022-10-17T16:52:16.880Z,8.90
2022-10-17T16:54:51.315Z,9.00
2022-10-17T16:57:21.251Z,9.00
2022-10-17T16:59:51.451Z,9.00
2022-10-17T17:02:23.803Z,8.90
2022-10-17T17:04:53.979Z,9.00
2022-10-17T17:10:00.196Z,9.00
2022-10-17T17:12:29.881Z,9.50
2022-10-17T17:15:00.188Z,9.10
2022-10-17T17:17:48.739Z,9.20
2022-10-17T17:20:21.318Z,9.10
2022-10-17T17:22:53.868Z,9.30
2022-10-17T17:25:28.092Z,9.10
2022-10-17T17:35:26.886Z,9.70
2022-10-17T17:37:59.977Z,9.20
2022-10-17T17:40:32.585Z,9.50
2022-10-17T17:43:07.159Z,9.10
2022-10-17T17:48:09.745Z,9.20
2022-10-17T17:50:42.833Z,9.10
2022-10-17T17:53:20.069Z,9.20
2022-10-17T17:56:03.280Z,9.20
2022-10-17T17:58:36.901Z,9.40
2022-10-17T18:01:15.195Z,9.40
2022-10-17T18:03:47.074Z,9.50
2022-10-17T18:06:25.305Z,9.70
2022-10-17T18:11:31.401Z,9.40
2022-10-17T18:14:06.628Z,9.40
2022-10-17T18:16:42.612Z,9.30
2022-10-17T18:19:14.981Z,9.30
2022-10-17T18:24:18.051Z,9.50
2022-10-17T18:26:57.713Z,9.30
2022-10-17T18:29:32.147Z,10.50
2022-10-17T18:32:06.769Z,9.50
2022-10-17T18:34:37.549Z,9.50
2022-10-17T18:37:10.317Z,9.40
2022-10-17T18:42:13.998Z,9.40
2022-10-17T18:44:45.721Z,9.40
2022-10-17T18:47:16.351Z,9.30
2022-10-17T18:49:48.015Z,9.30
2022-10-17T18:52:19.196Z,9.30
2022-10-17T18:54:50.047Z,9.40
2022-10-17T18:57:21.470Z,9.20
2022-10-17T19:02:24.044Z,9.90
2022-10-17T19:04:54.928Z,9.30
2022-10-17T19:07:25.633Z,9.30
2022-10-17T19:09:57.142Z,9.30
2022-10-17T19:12:26.273Z,9.30
2022-10-17T19:14:57.054Z,9.20
2022-10-17T19:17:28.254Z,9.20
2022-10-17T19:19:57.204Z,9.10
2022-10-17T19:22:25.629Z,9.70
2022-10-17T19:27:24.276Z,9.30
2022-10-17T19:29:55.030Z,9.30
2022-10-17T19:39:49.561Z,9.30
2022-10-17T19:47:13.559Z,10.00
2022-10-17T19:52:09.141Z,9.60
2022-10-17T19:54:36.896Z,9.30
2022-10-17T19:57:08.088Z,9.20
2022-10-17T19:59:38.633Z,9.60
2022-10-17T20:04:45.417Z,9.30
2022-10-17T20:07:24.899Z,9.10
2022-10-17T20:09:54.733Z,9.20
2022-10-17T20:14:51.838Z,9.50
2022-10-17T20:22:17.981Z,9.40
2022-10-17T20:34:39.570Z,8.90
2022-10-17T20:44:30.700Z,9.50
2022-10-17T20:51:59.165Z,9.20
2022-10-17T20:54:29.278Z,9.10
2022-10-17T20:59:31.948Z,9.20
2022-10-17T21:04:46.021Z,9.20
2022-10-17T21:07:16.732Z,9.20
2022-10-17T21:09:46.580Z,9.40
2022-10-17T21:12:21.883Z,9.20
2022-10-17T21:15:01.683Z,9.20
2022-10-17T21:17:35.373Z,9.10
2022-10-17T21:20:04.867Z,9.10
2022-10-17T21:22:35.201Z,9.10
2022-10-17T21:25:06.312Z,9.50
2022-10-17T21:27:36.139Z,9.40
2022-10-17T21:30:04.982Z,8.80
2022-10-17T21:45:15.631Z,9.10
2022-10-17T21:48:11.263Z,8.90
2022-10-17T21:55:30.876Z,8.50
2022-10-17T21:57:58.288Z,8.80
2022-10-17T22:10:16.505Z,8.10
2022-10-17T22:12:47.252Z,8.80
2022-10-17T22:15:18.975Z,9.10
2022-10-17T22:20:21.716Z,9.00
2022-10-17T22:22:51.781Z,8.70
2022-10-17T22:25:22.387Z,8.70
2022-10-17T22:27:55.108Z,8.70
2022-10-17T22:45:12.257Z,8.30
2022-10-17T22:52:37.620Z,8.80
2022-10-17T22:57:33.152Z,8.60
2022-10-17T23:07:24.624Z,9.00
2022-10-17T23:09:52.529Z,10.00
2022-10-17T23:17:16.633Z,8.90
2022-10-17T23:32:03.143Z,9.00
2022-10-17T23:36:58.406Z,8.60
2022-10-17T23:59:11.003Z,9.90
